createdAt,value
2018-01-04T00:00:31.028Z,6.94
2018-01-04T00:02:58.694Z,6.94
2018-01-04T00:05:24.541Z,6.94
2018-01-04T00:07:53.926Z,6.92
2018-01-04T00:10:19.755Z,6.94
2018-01-04T00:12:49.595Z,6.93
2018-01-04T00:15:15.454Z,6.92
2018-01-04T00:17:44.687Z,6.92
2018-01-04T00:20:10.526Z,6.93
2018-01-04T00:22:37.669Z,6.95
2018-01-04T00:25:03.504Z,6.96
2018-01-04T00:27:29.333Z,6.89
2018-01-04T00:29:55.159Z,6.77
2018-01-04T00:32:21.005Z,6.63
2018-01-04T00:34:49.950Z,6.54
2018-01-04T00:37:15.782Z,6.43
2018-01-04T00:39:45.317Z,6.36
2018-01-04T00:42:11.196Z,6.37
2018-01-04T00:44:40.314Z,6.34
2018-01-04T00:47:06.091Z,6.30
2018-01-04T00:49:33.701Z,6.35
2018-01-04T00:51:59.541Z,6.38
2018-01-04T00:54:28.866Z,6.33
2018-01-04T00:56:54.716Z,6.34
2018-01-04T00:59:22.863Z,6.32
2018-01-04T01:01:48.653Z,6.32
2018-01-04T01:04:14.494Z,6.33
2018-01-04T01:06:40.371Z,6.36
2018-01-04T01:09:06.198Z,6.34
2018-01-04T01:11:35.704Z,6.40
2018-01-04T01:14:01.570Z,6.45
2018-01-04T01:16:29.184Z,6.46
2018-01-04T01:18:55.346Z,6.47
2018-01-04T01:21:24.986Z,6.56
2018-01-04T01:23:50.842Z,6.64
2018-01-04T01:26:19.435Z,6.64
2018-01-04T01:28:45.236Z,6.66
2018-01-04T01:31:14.942Z,6.65
2018-01-04T01:33:40.791Z,6.67
2018-01-04T01:36:09.865Z,6.69
2018-01-04T01:38:35.693Z,6.60
2018-01-04T01:41:01.555Z,6.54
2018-01-04T01:43:27.430Z,6.40
2018-01-04T01:45:53.245Z,6.40
2018-01-04T01:48:20.446Z,6.30
2018-01-04T01:50:46.282Z,6.28
2018-01-04T01:53:15.235Z,6.29
2018-01-04T01:55:41.085Z,6.25
2018-01-04T01:58:09.229Z,6.26
2018-01-04T02:00:35.031Z,6.25
2018-01-04T02:03:05.153Z,6.27
2018-01-04T02:05:31.005Z,6.21
2018-01-04T02:07:59.451Z,6.20
2018-01-04T02:10:25.238Z,6.19
2018-01-04T02:12:54.648Z,6.15
2018-01-04T02:15:20.475Z,6.15
2018-01-04T02:17:46.308Z,6.11
2018-01-04T02:20:24.502Z,6.10
2018-01-04T02:23:02.724Z,6.14
2018-01-04T02:25:40.754Z,6.12
2018-01-04T02:28:18.884Z,6.19
2018-01-04T02:30:56.821Z,6.27
2018-01-04T02:33:34.910Z,6.34
2018-01-04T02:36:12.970Z,6.36
2018-01-04T02:38:51.170Z,6.39
2018-01-04T02:41:29.432Z,6.43
2018-01-04T02:44:00.228Z,6.42
2018-01-04T02:46:26.103Z,6.48
2018-01-04T02:48:51.920Z,6.50
2018-01-04T02:51:17.764Z,6.53
2018-01-04T02:53:43.590Z,6.52
2018-01-04T02:56:09.430Z,6.51
2018-01-04T02:58:35.256Z,6.48
2018-01-04T03:01:01.126Z,6.50
2018-01-04T03:03:26.953Z,6.55
2018-01-04T03:05:52.807Z,6.56
2018-01-04T03:08:18.610Z,6.63
2018-01-04T03:10:44.454Z,6.68
2018-01-04T03:13:10.284Z,6.63
2018-01-04T03:15:36.112Z,6.66
2018-01-04T03:18:01.951Z,6.75
2018-01-04T03:20:27.772Z,6.76
2018-01-04T03:22:59.661Z,6.79
2018-01-04T03:25:31.544Z,6.77
2018-01-04T03:28:03.581Z,6.80
2018-01-04T03:30:35.657Z,6.80
2018-01-04T03:33:07.704Z,6.86
2018-01-04T03:35:39.665Z,6.84
2018-01-04T03:38:11.769Z,6.82
2018-01-04T03:40:43.826Z,6.84
2018-01-04T03:43:15.927Z,6.86
2018-01-04T03:45:47.760Z,6.92
2018-01-04T03:48:19.606Z,6.91
2018-01-04T03:50:54.763Z,6.92
2018-01-04T03:53:26.715Z,6.94
2018-01-04T03:55:58.678Z,6.97
2018-01-04T03:58:24.506Z,6.98
2018-01-04T04:00:56.522Z,6.98
2018-01-04T04:03:22.324Z,6.98
2018-01-04T04:05:54.168Z,6.93
2018-01-04T04:08:26.150Z,6.89
2018-01-04T04:10:51.964Z,6.86
2018-01-04T04:13:17.863Z,6.80
2018-01-04T04:15:43.662Z,6.77
2018-01-04T04:18:09.483Z,6.76
2018-01-04T04:20:35.362Z,6.78
2018-01-04T04:23:01.185Z,6.73
2018-01-04T04:25:27.042Z,6.66
2018-01-04T04:27:52.888Z,6.57
2018-01-04T04:30:18.723Z,6.50
2018-01-04T04:32:44.520Z,6.39
2018-01-04T04:35:10.321Z,6.31
2018-01-04T04:37:36.158Z,6.28
2018-01-04T04:40:01.958Z,6.25
2018-01-04T04:42:27.759Z,6.20
2018-01-04T04:44:53.617Z,6.09
2018-01-04T04:47:19.439Z,6.08
2018-01-04T04:49:45.268Z,6.01
2018-01-04T04:52:11.069Z,5.94
2018-01-04T04:54:36.878Z,5.94
2018-01-04T04:57:02.722Z,5.80
2018-01-04T04:59:28.570Z,5.76
2018-01-04T05:01:55.916Z,5.62
2018-01-04T05:04:21.789Z,5.55
2018-01-04T05:06:50.721Z,5.58
2018-01-04T05:09:16.566Z,5.51
2018-01-04T05:11:45.058Z,5.48
2018-01-04T05:14:10.913Z,5.43
2018-01-04T05:19:07.629Z,5.37
2018-01-04T05:21:33.429Z,5.35
2018-01-04T05:23:59.224Z,5.36
2018-01-04T05:26:25.049Z,5.29
2018-01-04T05:28:52.100Z,5.22
2018-01-04T05:31:17.932Z,5.25
2018-01-04T05:33:46.233Z,5.27
2018-01-04T05:36:12.080Z,5.26
2018-01-04T05:41:08.765Z,5.27
2018-01-04T05:43:36.362Z,5.28
2018-01-04T05:46:02.186Z,5.29
2018-01-04T05:48:31.475Z,5.30
2018-01-04T05:50:57.289Z,5.31
2018-01-04T05:53:26.815Z,5.33
2018-01-04T05:55:52.715Z,5.33
2018-01-04T05:58:18.545Z,5.34
2018-01-04T06:00:44.368Z,5.37
2018-01-04T06:03:10.200Z,5.38
2018-01-04T06:05:37.216Z,5.35
2018-01-04T06:08:03.050Z,5.39
2018-01-04T06:10:31.867Z,5.38
2018-01-04T06:12:57.710Z,5.40
2018-01-04T06:15:26.378Z,5.36
2018-01-04T06:17:52.226Z,5.35
2018-01-04T06:20:21.407Z,5.37
2018-01-04T06:22:47.213Z,5.35
2018-01-04T06:25:16.461Z,5.42
2018-01-04T06:27:42.281Z,5.49
2018-01-04T06:30:10.721Z,5.52
2018-01-04T06:32:36.538Z,5.55
2018-01-04T06:35:02.393Z,5.53
2018-01-04T06:37:28.249Z,5.52
2018-01-04T06:39:54.066Z,5.56
2018-01-04T06:42:23.775Z,5.58
2018-01-04T06:44:49.610Z,5.58
2018-01-04T06:47:18.598Z,5.63
2018-01-04T06:49:44.388Z,5.64
2018-01-04T06:52:11.878Z,5.62
2018-01-04T06:54:37.731Z,5.69
2018-01-04T06:57:07.013Z,5.74
2018-01-04T06:59:32.851Z,5.65
2018-01-04T07:02:02.291Z,5.65
2018-01-04T07:04:28.132Z,5.68
2018-01-04T07:06:56.020Z,5.72
2018-01-04T07:09:21.888Z,5.72
2018-01-04T07:11:47.734Z,5.76
2018-01-04T07:14:13.562Z,5.77
2018-01-04T07:16:39.429Z,5.81
2018-01-04T07:19:08.430Z,5.79
2018-01-04T07:21:34.232Z,5.72
2018-01-04T07:24:02.390Z,5.71
2018-01-04T07:26:28.232Z,5.65
2018-01-04T07:28:57.037Z,5.67
2018-01-04T07:31:22.883Z,5.72
2018-01-04T07:36:19.590Z,5.69
2018-01-04T07:38:48.101Z,5.71
2018-01-04T07:41:13.916Z,5.77
2018-01-04T07:43:43.322Z,5.78
2018-01-04T07:46:09.155Z,5.82
2018-01-04T07:48:34.962Z,5.88
2018-01-04T07:51:00.831Z,5.87
2018-01-04T07:53:26.649Z,5.86
2018-01-04T07:55:53.250Z,5.84
2018-01-04T07:58:19.072Z,5.86
2018-01-04T08:00:49.451Z,5.89
2018-01-04T08:03:15.302Z,5.87
2018-01-04T08:05:42.625Z,5.93
2018-01-04T08:08:08.457Z,5.88
2018-01-04T08:10:37.778Z,5.93
2018-01-04T08:13:03.650Z,5.90
2018-01-04T08:15:33.338Z,5.94
2018-01-04T08:17:59.162Z,5.93
2018-01-04T08:20:28.506Z,5.97
2018-01-04T08:22:54.390Z,5.97
2018-01-04T08:25:20.236Z,5.96
2018-01-04T08:27:46.090Z,6.08
2018-01-04T08:30:11.917Z,6.05
2018-01-04T08:32:38.708Z,6.14
2018-01-04T08:35:04.628Z,6.16
2018-01-04T08:37:33.634Z,6.16
2018-01-04T08:39:59.467Z,6.20
2018-01-04T08:42:28.706Z,6.21
2018-01-04T08:44:54.506Z,6.13
2018-01-04T08:47:23.862Z,6.19
2018-01-04T08:49:49.661Z,6.21
2018-01-04T08:52:18.889Z,6.22
2018-01-04T08:54:44.720Z,6.26
2018-01-04T08:57:12.450Z,6.24
2018-01-04T08:59:38.273Z,6.25
2018-01-04T09:02:04.242Z,6.29
2018-01-04T09:04:30.046Z,6.34
2018-01-04T09:06:55.835Z,6.37
2018-01-04T09:09:24.664Z,6.45
2018-01-04T09:11:50.529Z,6.49
2018-01-04T09:14:19.211Z,6.54
2018-01-04T09:16:45.066Z,6.53
2018-01-04T09:19:14.418Z,6.61
2018-01-04T09:21:40.248Z,6.65
2018-01-04T09:24:09.427Z,6.73
2018-01-04T09:26:35.218Z,6.82
2018-01-04T09:29:02.804Z,6.85
2018-01-04T09:31:28.637Z,6.92
2018-01-04T09:33:58.001Z,7.01
2018-01-04T09:36:23.873Z,6.93
2018-01-04T09:38:49.754Z,6.95
2018-01-04T09:41:15.584Z,7.02
2018-01-04T09:43:41.418Z,7.07
2018-01-04T09:46:10.668Z,7.13
2018-01-04T09:48:36.483Z,7.09
2018-01-04T09:51:04.081Z,7.08
2018-01-04T09:53:29.881Z,7.13
2018-01-04T09:55:59.148Z,7.12
2018-01-04T09:58:24.929Z,7.10
2018-01-04T10:00:53.998Z,6.96
2018-01-04T10:03:19.825Z,6.99
2018-01-04T10:05:47.900Z,7.05
2018-01-04T10:08:13.750Z,7.11
2018-01-04T10:10:42.176Z,7.22
2018-01-04T10:13:08.097Z,7.13
2018-01-04T10:15:33.934Z,7.21
2018-01-04T10:17:59.764Z,7.20
2018-01-04T10:20:25.598Z,7.26
2018-01-04T10:22:55.079Z,7.28
2018-01-04T10:25:20.836Z,7.36
2018-01-04T10:27:50.287Z,7.37
2018-01-04T10:30:16.077Z,7.40
2018-01-04T10:32:43.757Z,7.54
2018-01-04T10:35:09.587Z,7.54
2018-01-04T10:37:39.028Z,7.54
2018-01-04T10:40:04.853Z,7.52
2018-01-04T10:42:34.613Z,7.54
2018-01-04T10:45:00.483Z,7.52
2018-01-04T10:47:27.879Z,7.52
2018-01-04T10:49:53.672Z,7.43
2018-01-04T10:52:19.493Z,7.43
2018-01-04T10:54:45.358Z,7.39
2018-01-04T10:57:11.199Z,7.43
2018-01-04T10:59:40.043Z,7.44
2018-01-04T11:02:05.873Z,7.47
2018-01-04T11:04:34.944Z,7.54
2018-01-04T11:07:00.799Z,7.46
2018-01-04T11:09:29.871Z,7.47
2018-01-04T11:11:55.673Z,7.48
2018-01-04T11:14:25.130Z,7.46
2018-01-04T11:16:50.937Z,7.45
2018-01-04T11:19:19.905Z,7.40
2018-01-04T11:21:45.725Z,7.44
2018-01-04T11:24:15.049Z,7.43
2018-01-04T11:26:40.858Z,7.44
2018-01-04T11:29:06.663Z,7.57
2018-01-04T11:31:32.557Z,7.56
2018-01-04T11:33:58.409Z,7.60
2018-01-04T11:36:25.256Z,7.63
2018-01-04T11:38:51.081Z,7.63
2018-01-04T11:41:20.198Z,7.62
2018-01-04T11:43:46.022Z,7.61
2018-01-04T11:46:15.295Z,7.59
2018-01-04T11:48:41.162Z,7.68
2018-01-04T11:51:09.336Z,7.63
2018-01-04T11:53:35.115Z,7.65
2018-01-04T11:56:03.777Z,7.70
2018-01-04T11:58:29.621Z,7.74
2018-01-04T12:00:57.989Z,7.73
2018-01-04T12:03:23.847Z,7.87
2018-01-04T12:05:49.694Z,7.86
2018-01-04T12:08:15.512Z,7.81
2018-01-04T12:10:41.357Z,7.87
2018-01-04T12:13:10.830Z,7.82
2018-01-04T12:15:36.675Z,7.73
2018-01-04T12:18:05.972Z,7.70
2018-01-04T12:20:31.796Z,7.75
2018-01-04T12:22:59.525Z,7.76
2018-01-04T12:25:25.355Z,7.77
2018-01-04T12:27:54.110Z,7.81
2018-01-04T12:30:19.966Z,7.79
2018-01-04T12:35:16.548Z,7.91
2018-01-04T12:37:43.936Z,7.83
2018-01-04T12:40:09.758Z,7.90
2018-01-04T12:42:35.668Z,7.94
2018-01-04T12:45:01.469Z,7.99
2018-01-04T12:47:27.281Z,7.95
2018-01-04T12:49:56.861Z,8.01
2018-01-04T12:52:22.689Z,8.11
2018-01-04T12:54:51.961Z,8.16
2018-01-04T12:57:17.804Z,8.22
2018-01-04T12:59:44.974Z,8.22
2018-01-04T13:02:10.821Z,8.31
2018-01-04T13:04:40.265Z,8.41
2018-01-04T13:07:06.126Z,8.47
2018-01-04T13:09:35.883Z,8.57
2018-01-04T13:12:01.751Z,8.66
2018-01-04T13:14:29.348Z,8.74
2018-01-04T13:16:55.183Z,8.86
2018-01-04T13:19:21.058Z,8.93
2018-01-04T13:21:46.862Z,9.02
2018-01-04T13:24:12.693Z,9.08
2018-01-04T13:26:41.824Z,9.18
2018-01-04T13:29:07.669Z,9.22
2018-01-04T13:31:35.246Z,9.33
2018-01-04T13:34:01.082Z,9.55
2018-01-04T13:38:57.781Z,10.65
2018-01-04T13:41:27.010Z,11.00
2018-01-04T13:43:52.835Z,11.22
2018-01-04T13:46:20.078Z,11.43
2018-01-04T13:48:45.925Z,11.52
2018-01-04T13:51:15.108Z,11.61
2018-01-04T13:53:40.938Z,11.66
2018-01-04T13:56:06.757Z,11.71
2018-01-04T13:58:32.587Z,11.73
2018-01-04T14:00:58.416Z,11.81
2018-01-04T14:03:26.254Z,11.81
2018-01-04T14:05:52.088Z,11.88
2018-01-04T14:08:21.596Z,11.92
2018-01-04T14:10:47.449Z,11.91
2018-01-04T14:13:15.654Z,11.93
2018-01-04T14:15:41.510Z,11.83
2018-01-04T14:18:14.205Z,11.91
2018-01-04T14:20:40.046Z,11.93
2018-01-04T14:23:05.903Z,11.95
2018-01-04T14:25:31.765Z,11.96
2018-01-04T14:28:00.813Z,12.04
2018-01-04T14:30:26.630Z,11.97
2018-01-04T14:32:52.481Z,11.93
2018-01-04T14:35:18.316Z,11.93
2018-01-04T14:37:44.120Z,11.96
2018-01-04T14:40:13.148Z,11.95
2018-01-04T14:42:38.968Z,11.91
2018-01-04T14:45:06.340Z,11.94
2018-01-04T14:47:32.168Z,11.95
2018-01-04T14:50:01.550Z,12.01
2018-01-04T14:52:27.392Z,12.00
2018-01-04T14:54:56.401Z,12.05
2018-01-04T14:57:22.243Z,12.13
2018-01-04T14:59:51.581Z,12.12
2018-01-04T15:02:17.446Z,12.12
2018-01-04T15:04:46.629Z,12.17
2018-01-04T15:07:12.457Z,12.09
2018-01-04T15:09:38.300Z,12.09
2018-01-04T15:12:04.104Z,12.13
2018-01-04T15:14:29.937Z,12.14
2018-01-04T15:16:56.651Z,12.10
2018-01-04T15:19:22.491Z,12.07
2018-01-04T15:21:51.930Z,12.10
2018-01-04T15:24:17.769Z,12.16
2018-01-04T15:26:47.631Z,12.11
2018-01-04T15:29:13.445Z,12.11
2018-01-04T15:31:42.756Z,11.47
2018-01-04T15:34:08.582Z,12.11
2018-01-04T15:36:35.909Z,12.14
2018-01-04T15:39:01.768Z,12.17
2018-01-04T15:41:30.948Z,12.15
2018-01-04T15:43:56.769Z,12.12
2018-01-04T15:46:22.617Z,12.15
2018-01-04T15:48:48.481Z,12.12
2018-01-04T15:51:14.302Z,12.13
2018-01-04T15:53:43.545Z,12.19
2018-01-04T15:56:09.389Z,12.17
2018-01-04T15:58:36.767Z,12.16
2018-01-04T16:01:02.583Z,12.20
2018-01-04T16:03:31.854Z,12.30
2018-01-04T16:05:57.695Z,12.34
2018-01-04T16:08:26.886Z,12.31
2018-01-04T16:10:52.732Z,12.29
2018-01-04T16:13:22.241Z,12.33
2018-01-04T16:15:48.040Z,12.30
2018-01-04T16:18:16.465Z,12.35
2018-01-04T16:20:42.293Z,12.35
2018-01-04T16:23:08.134Z,12.37
2018-01-04T16:25:33.935Z,12.39
2018-01-04T16:27:59.754Z,12.33
2018-01-04T16:30:27.487Z,12.39
2018-01-04T16:32:53.296Z,12.35
2018-01-04T16:35:22.688Z,12.35
2018-01-04T16:37:48.516Z,12.29
2018-01-04T16:40:18.221Z,12.24
2018-01-04T16:42:44.054Z,12.19
2018-01-04T16:45:13.173Z,12.13
2018-01-04T16:47:39.009Z,12.11
2018-01-04T16:50:07.849Z,12.09
2018-01-04T16:52:33.650Z,12.07
2018-01-04T16:55:02.894Z,12.03
2018-01-04T16:57:28.744Z,12.06
2018-01-04T16:59:54.626Z,12.06
2018-01-04T17:02:20.446Z,12.06
2018-01-04T17:04:46.271Z,12.10
2018-01-04T17:07:13.348Z,12.09
2018-01-04T17:09:39.161Z,12.09
2018-01-04T17:12:07.171Z,12.09
2018-01-04T17:14:33.034Z,12.12
2018-01-04T17:17:01.904Z,12.09
2018-01-04T17:19:27.767Z,12.13
2018-01-04T17:21:56.945Z,12.13
2018-01-04T17:24:22.806Z,12.15
2018-01-04T17:26:51.412Z,12.12
2018-01-04T17:29:17.242Z,12.08
2018-01-04T17:31:46.065Z,12.16
2018-01-04T17:34:11.926Z,12.18
2018-01-04T17:36:37.758Z,12.21
2018-01-04T17:39:03.627Z,12.29
2018-01-04T17:41:29.426Z,12.28
2018-01-04T17:43:59.212Z,12.26
2018-01-04T17:46:25.054Z,12.23
2018-01-04T17:48:52.899Z,12.20
2018-01-04T17:51:18.739Z,12.15
2018-01-04T17:53:48.549Z,12.16
2018-01-04T17:56:14.390Z,12.22
2018-01-04T17:58:41.902Z,12.19
2018-01-04T18:01:07.739Z,12.23
2018-01-04T18:03:34.320Z,12.19
2018-01-04T18:06:01.684Z,12.19
2018-01-04T18:08:27.547Z,12.22
2018-01-04T18:10:54.381Z,12.26
2018-01-04T18:13:20.212Z,12.30
2018-01-04T18:15:49.481Z,12.25
2018-01-04T18:18:15.295Z,12.32
2018-01-04T18:20:42.980Z,12.29
2018-01-04T18:23:08.812Z,12.34
2018-01-04T18:28:05.625Z,12.41
2018-01-04T18:30:34.565Z,12.42
2018-01-04T18:33:00.394Z,12.39
2018-01-04T18:35:27.958Z,12.37
2018-01-04T18:37:53.806Z,12.34
2018-01-04T18:40:22.788Z,12.31
2018-01-04T18:42:48.627Z,12.25
2018-01-04T18:45:17.537Z,12.27
2018-01-04T18:47:43.358Z,12.19
2018-01-04T18:50:09.253Z,12.22
2018-01-04T18:52:35.058Z,12.24
2018-01-04T18:55:00.862Z,12.18
2018-01-04T18:57:29.522Z,12.15
2018-01-04T18:59:55.318Z,12.12
2018-01-04T19:02:23.038Z,12.14
2018-01-04T19:04:48.796Z,12.12
2018-01-04T19:09:45.559Z,12.12
2018-01-04T19:12:12.709Z,12.10
2018-01-04T19:14:38.525Z,12.12
2018-01-04T19:17:08.000Z,12.12
2018-01-04T19:19:33.857Z,12.14
2018-01-04T19:22:02.018Z,12.15
2018-01-04T19:24:27.832Z,12.09
2018-01-04T19:26:53.695Z,12.12
2018-01-04T19:29:19.511Z,12.19
2018-01-04T19:31:45.387Z,12.08
2018-01-04T19:34:13.792Z,12.14
2018-01-04T19:36:39.594Z,12.14
2018-01-04T19:39:08.565Z,12.15
2018-01-04T19:41:34.436Z,12.14
2018-01-04T19:44:03.959Z,12.17
2018-01-04T19:46:29.782Z,12.16
2018-01-04T19:48:58.292Z,12.19
2018-01-04T19:51:24.105Z,12.20
2018-01-04T19:53:53.019Z,12.29
2018-01-04T19:56:18.824Z,12.32
2018-01-04T19:58:48.233Z,12.39
2018-01-04T20:01:14.040Z,12.37
2018-01-04T20:03:39.844Z,12.37
2018-01-04T20:06:05.645Z,12.43
2018-01-04T20:08:31.500Z,12.48
2018-01-04T20:11:00.138Z,12.52
2018-01-04T20:13:25.974Z,12.48
2018-01-04T20:15:54.961Z,12.51
2018-01-04T20:18:20.833Z,12.51
2018-01-04T20:20:48.502Z,12.48
2018-01-04T20:23:15.181Z,12.37
2018-01-04T20:25:43.342Z,12.25
2018-01-04T20:28:09.174Z,11.79
2018-01-04T20:30:38.744Z,11.38
2018-01-04T20:33:04.542Z,10.96
2018-01-04T20:35:33.471Z,10.77
2018-01-04T20:37:59.276Z,10.70
2018-01-04T20:40:25.090Z,10.60
2018-01-04T20:42:50.914Z,10.59
2018-01-04T20:45:16.756Z,10.57
2018-01-04T20:47:45.562Z,10.58
2018-01-04T20:50:11.422Z,10.61
2018-01-04T20:52:39.427Z,10.64
2018-01-04T20:55:05.272Z,10.62
2018-01-04T20:57:34.593Z,10.58
2018-01-04T21:00:00.462Z,10.45
2018-01-04T21:02:29.450Z,10.40
2018-01-04T21:04:55.282Z,10.34
2018-01-04T21:07:24.719Z,10.31
2018-01-04T21:09:50.575Z,10.26
2018-01-04T21:12:20.008Z,10.15
2018-01-04T21:14:45.860Z,10.06
2018-01-04T21:17:11.709Z,9.87
2018-01-04T21:19:37.533Z,9.74
2018-01-04T21:22:03.383Z,9.65
2018-01-04T21:24:30.695Z,9.61
2018-01-04T21:26:56.556Z,9.55
2018-01-04T21:29:25.523Z,9.48
2018-01-04T21:31:51.347Z,9.44
2018-01-04T21:34:20.213Z,9.38
2018-01-04T21:36:46.005Z,9.34
2018-01-04T21:39:14.352Z,9.31
2018-01-04T21:41:40.274Z,9.26
2018-01-04T21:44:10.052Z,9.23
2018-01-04T21:46:35.909Z,9.24
2018-01-04T21:49:04.742Z,9.17
2018-01-04T21:51:30.595Z,9.18
2018-01-04T21:53:56.455Z,9.14
2018-01-04T21:56:22.278Z,9.16
2018-01-04T21:58:48.080Z,9.16
2018-01-04T22:01:16.973Z,9.15
2018-01-04T22:03:42.805Z,9.19
2018-01-04T22:06:10.078Z,9.16
2018-01-04T22:08:35.936Z,9.11
2018-01-04T22:11:05.513Z,9.11
2018-01-04T22:13:45.348Z,9.04
2018-01-04T22:16:11.200Z,9.05
2018-01-04T22:18:37.003Z,9.06
2018-01-04T22:21:02.862Z,9.04
2018-01-04T22:23:28.718Z,9.05
2018-01-04T22:25:54.619Z,9.03
2018-01-04T22:28:20.434Z,9.02
2018-01-04T22:30:46.263Z,8.98
2018-01-04T22:33:12.125Z,8.94
2018-01-04T22:35:38.073Z,8.95
2018-01-04T22:38:03.935Z,8.93
2018-01-04T22:40:29.813Z,8.90
2018-01-04T22:42:55.663Z,8.89
2018-01-04T22:45:21.501Z,8.89
2018-01-04T22:47:51.378Z,8.87
2018-01-04T22:50:17.279Z,8.86
2018-01-04T22:52:44.778Z,8.83
2018-01-04T22:55:10.646Z,8.73
2018-01-04T23:00:37.081Z,8.78
2018-01-04T23:03:02.939Z,8.74
2018-01-04T23:05:28.834Z,8.70
2018-01-04T23:07:54.731Z,8.74
2018-01-04T23:10:20.593Z,8.71
2018-01-04T23:12:46.466Z,8.72
2018-01-04T23:15:12.314Z,8.70
2018-01-04T23:17:38.134Z,8.67
2018-01-04T23:20:04.070Z,8.70
2018-01-04T23:25:40.968Z,8.61
2018-01-04T23:28:08.730Z,8.56
2018-01-04T23:30:34.578Z,8.53
2018-01-04T23:33:03.565Z,8.46
2018-01-04T23:35:29.432Z,8.40
2018-01-04T23:37:59.334Z,8.44
2018-01-04T23:40:25.192Z,8.41
2018-01-04T23:42:54.502Z,8.40
2018-01-04T23:45:20.327Z,8.38
2018-01-04T23:47:48.117Z,8.39
2018-01-04T23:50:13.986Z,8.31
2018-01-04T23:52:42.640Z,8.36
2018-01-04T23:55:08.560Z,8.38
2018-01-04T23:57:38.066Z,8.35
